createdAt,value
2018-05-02T00:00:06.912Z,10.37
2018-05-02T00:02:33.623Z,10.31
2018-05-02T00:05:01.116Z,10.31
2018-05-02T00:07:27.816Z,10.25
2018-05-02T00:09:54.742Z,10.24
2018-05-02T00:12:21.480Z,10.19
2018-05-02T00:14:48.132Z,10.18
2018-05-02T00:17:14.813Z,10.12
2018-05-02T00:19:41.468Z,10.04
2018-05-02T00:22:08.289Z,10.07
2018-05-02T00:24:34.908Z,10.05
2018-05-02T00:27:02.331Z,10.08
2018-05-02T00:29:28.973Z,10.11
2018-05-02T00:31:55.604Z,10.13
2018-05-02T00:34:22.276Z,10.03
2018-05-02T00:36:49.778Z,10.02
2018-05-02T00:39:16.500Z,9.98
2018-05-02T00:41:43.201Z,10.01
2018-05-02T00:44:10.520Z,9.97
2018-05-02T00:46:37.250Z,9.92
2018-05-02T00:49:16.010Z,9.88
2018-05-02T00:51:42.871Z,9.85
2018-05-02T00:54:10.381Z,9.83
2018-05-02T00:56:37.365Z,9.84
2018-05-02T00:59:04.256Z,9.75
2018-05-02T01:01:31.075Z,9.68
2018-05-02T01:03:59.194Z,9.68
2018-05-02T01:06:26.058Z,9.71
2018-05-02T01:08:52.875Z,9.69
2018-05-02T01:11:19.576Z,9.67
2018-05-02T01:13:47.129Z,9.62
2018-05-02T01:16:14.715Z,9.65
2018-05-02T01:18:41.638Z,9.59
2018-05-02T01:21:09.325Z,9.62
2018-05-02T01:23:36.022Z,9.64
2018-05-02T01:26:03.327Z,9.57
2018-05-02T01:28:29.984Z,9.52
2018-05-02T01:30:56.696Z,9.49
2018-05-02T01:33:23.504Z,9.53
2018-05-02T01:35:50.968Z,9.49
2018-05-02T01:38:18.674Z,9.47
2018-05-02T01:40:46.208Z,9.50
2018-05-02T01:43:13.909Z,9.41
2018-05-02T01:45:40.748Z,9.44
2018-05-02T01:48:07.464Z,9.44
2018-05-02T01:50:34.285Z,9.37
2018-05-02T01:53:00.979Z,9.42
2018-05-02T01:55:27.976Z,9.39
2018-05-02T01:57:55.636Z,9.34
2018-05-02T02:00:23.509Z,9.34
2018-05-02T02:02:50.580Z,9.27
2018-05-02T02:05:17.434Z,9.27
2018-05-02T02:07:44.309Z,9.29
2018-05-02T02:10:11.307Z,9.29
2018-05-02T02:12:37.988Z,9.27
2018-05-02T02:15:04.751Z,9.31
2018-05-02T02:17:31.771Z,9.25
2018-05-02T02:19:58.641Z,9.23
2018-05-02T02:22:25.427Z,9.23
2018-05-02T02:24:52.382Z,9.20
2018-05-02T02:27:20.207Z,9.18
2018-05-02T02:29:47.381Z,9.20
2018-05-02T02:32:14.504Z,9.24
2018-05-02T02:34:41.424Z,9.20
2018-05-02T02:37:09.124Z,9.18
2018-05-02T02:39:36.607Z,9.19
2018-05-02T02:42:03.699Z,9.19
2018-05-02T02:44:31.118Z,9.13
2018-05-02T02:46:58.475Z,9.16
2018-05-02T02:49:25.588Z,9.13
2018-05-02T02:51:53.448Z,9.06
2018-05-02T02:54:21.992Z,9.04
2018-05-02T02:56:48.912Z,8.99
2018-05-02T02:59:15.676Z,8.97
2018-05-02T03:01:42.440Z,8.93
2018-05-02T03:04:09.076Z,8.85
2018-05-02T03:06:35.727Z,8.86
2018-05-02T03:09:02.391Z,8.86
2018-05-02T03:11:29.462Z,8.88
2018-05-02T03:13:56.319Z,8.85
2018-05-02T03:16:23.164Z,8.80
2018-05-02T03:18:49.996Z,8.81
2018-05-02T03:21:17.066Z,8.81
2018-05-02T03:23:43.721Z,8.87
2018-05-02T03:26:10.370Z,8.79
2018-05-02T03:28:37.845Z,8.79
2018-05-02T03:31:05.255Z,8.80
2018-05-02T03:33:32.040Z,8.79
2018-05-02T03:35:59.795Z,8.83
2018-05-02T03:38:27.209Z,8.73
2018-05-02T03:40:54.853Z,8.75
2018-05-02T03:43:21.596Z,8.72
2018-05-02T03:45:48.462Z,8.75
2018-05-02T03:48:15.127Z,8.70
2018-05-02T03:50:41.793Z,8.63
2018-05-02T03:53:08.748Z,8.59
2018-05-02T03:55:35.435Z,8.59
2018-05-02T03:58:02.298Z,8.61
2018-05-02T04:00:47.474Z,8.60
2018-05-02T04:03:33.213Z,8.54
2018-05-02T04:06:16.090Z,8.51
2018-05-02T04:08:43.792Z,8.55
2018-05-02T04:11:10.475Z,8.60
2018-05-02T04:13:37.098Z,8.65
2018-05-02T04:16:03.931Z,8.64
2018-05-02T04:18:30.661Z,8.64
2018-05-02T04:20:57.334Z,8.69
2018-05-02T04:23:25.489Z,8.71
2018-05-02T04:25:52.106Z,8.70
2018-05-02T04:28:19.616Z,8.68
2018-05-02T04:30:46.988Z,8.77
2018-05-02T04:33:14.345Z,8.83
2018-05-02T04:35:42.721Z,8.81
2018-05-02T04:38:09.341Z,8.91
2018-05-02T04:40:36.121Z,8.93
2018-05-02T04:43:02.836Z,8.99
2018-05-02T04:45:30.219Z,9.09
2018-05-02T04:47:58.586Z,9.20
2018-05-02T04:50:26.032Z,9.33
2018-05-02T04:52:52.743Z,9.47
2018-05-02T04:55:20.248Z,9.59
2018-05-02T04:57:47.597Z,9.72
2018-05-02T05:00:14.225Z,9.80
2018-05-02T05:02:41.776Z,9.90
2018-05-02T05:05:10.536Z,10.07
2018-05-02T05:07:37.166Z,10.11
2018-05-02T05:10:03.908Z,10.20
2018-05-02T05:12:31.230Z,10.27
2018-05-02T05:14:58.026Z,10.41
2018-05-02T05:17:25.572Z,10.68
2018-05-02T05:19:52.882Z,11.00
2018-05-02T05:22:19.542Z,11.62
2018-05-02T05:24:46.234Z,12.10
2018-05-02T05:27:12.892Z,12.47
2018-05-02T05:29:39.564Z,12.57
2018-05-02T05:32:06.969Z,12.64
2018-05-02T05:34:34.326Z,12.57
2018-05-02T05:37:01.944Z,12.54
2018-05-02T05:39:29.568Z,12.50
2018-05-02T05:41:56.324Z,12.60
2018-05-02T05:44:23.020Z,12.58
2018-05-02T05:46:50.563Z,12.41
2018-05-02T05:49:17.311Z,12.28
2018-05-02T05:51:44.790Z,12.22
2018-05-02T05:54:11.914Z,12.29
2018-05-02T05:56:38.365Z,12.20
2018-05-02T05:59:06.664Z,12.16
2018-05-02T06:01:34.148Z,12.24
2018-05-02T06:04:00.939Z,12.21
2018-05-02T06:06:28.855Z,12.23
2018-05-02T06:08:55.545Z,12.24
2018-05-02T06:11:23.321Z,12.27
2018-05-02T06:13:50.799Z,12.28
2018-05-02T06:16:18.075Z,12.33
2018-05-02T06:18:44.988Z,12.32
2018-05-02T06:21:11.905Z,12.38
2018-05-02T06:23:40.125Z,12.46
2018-05-02T06:26:06.754Z,12.49
2018-05-02T06:28:33.400Z,12.60
2018-05-02T06:31:01.785Z,12.64
2018-05-02T06:33:28.568Z,12.70
2018-05-02T06:35:55.181Z,12.78
2018-05-02T06:38:21.888Z,12.74
2018-05-02T06:40:48.570Z,12.78
2018-05-02T06:43:15.312Z,12.95
2018-05-02T06:45:42.328Z,12.96
2018-05-02T06:48:09.175Z,13.07
2018-05-02T06:50:35.951Z,13.03
2018-05-02T06:53:02.652Z,13.16
2018-05-02T06:55:29.297Z,13.23
2018-05-02T06:57:55.925Z,13.25
2018-05-02T07:00:22.634Z,13.31
2018-05-02T07:02:51.055Z,13.32
2018-05-02T07:05:18.579Z,13.37
2018-05-02T07:07:45.215Z,13.45
2018-05-02T07:10:12.697Z,13.31
2018-05-02T07:12:39.347Z,13.34
2018-05-02T07:15:05.956Z,13.42
2018-05-02T07:17:33.654Z,13.59
2018-05-02T07:20:00.401Z,13.62
2018-05-02T07:22:27.056Z,13.63
2018-05-02T07:24:53.932Z,13.71
2018-05-02T07:27:20.625Z,13.77
2018-05-02T07:29:47.924Z,13.87
2018-05-02T07:32:14.597Z,13.90
2018-05-02T07:34:43.594Z,14.06
2018-05-02T07:37:10.644Z,14.19
2018-05-02T07:39:37.487Z,14.49
2018-05-02T07:42:04.127Z,14.70
2018-05-02T07:44:31.508Z,14.58
2018-05-02T07:46:58.216Z,14.63
2018-05-02T07:49:24.845Z,14.47
2018-05-02T07:51:51.686Z,14.49
2018-05-02T07:54:18.445Z,14.61
2018-05-02T07:56:47.473Z,14.53
2018-05-02T07:59:14.199Z,14.71
2018-05-02T08:01:42.417Z,14.80
2018-05-02T08:04:09.794Z,14.88
2018-05-02T08:06:36.466Z,14.90
2018-05-02T08:09:03.812Z,14.80
2018-05-02T08:11:30.512Z,14.94
2018-05-02T08:13:57.430Z,14.98
2018-05-02T08:16:24.626Z,14.94
2018-05-02T08:18:52.096Z,15.01
2018-05-02T08:21:20.090Z,15.05
2018-05-02T08:23:47.108Z,15.10
2018-05-02T08:26:13.828Z,15.12
2018-05-02T08:28:40.949Z,15.29
2018-05-02T08:31:08.396Z,15.18
2018-05-02T08:33:36.809Z,15.25
2018-05-02T08:36:04.357Z,15.41
2018-05-02T08:38:31.919Z,15.41
2018-05-02T08:41:01.256Z,15.34
2018-05-02T08:43:28.773Z,15.36
2018-05-02T08:45:56.144Z,15.56
2018-05-02T08:48:23.781Z,15.47
2018-05-02T08:50:51.179Z,15.49
2018-05-02T08:53:18.072Z,15.40
2018-05-02T08:55:44.755Z,15.52
2018-05-02T08:58:12.305Z,15.43
2018-05-02T09:00:39.015Z,15.55
2018-05-02T09:03:05.782Z,15.53
2018-05-02T09:05:53.159Z,15.59
2018-05-02T09:08:19.831Z,15.66
2018-05-02T09:10:48.551Z,15.89
2018-05-02T09:13:15.194Z,15.98
2018-05-02T09:15:41.854Z,16.04
2018-05-02T09:18:08.748Z,16.07
2018-05-02T09:20:36.217Z,16.23
2018-05-02T09:23:03.091Z,16.18
2018-05-02T09:25:29.806Z,16.23
2018-05-02T09:27:56.754Z,16.28
2018-05-02T09:30:23.466Z,16.35
2018-05-02T09:32:50.106Z,16.45
2018-05-02T09:35:17.811Z,16.57
2018-05-02T09:37:44.575Z,16.77
2018-05-02T09:40:12.493Z,16.80
2018-05-02T09:42:39.889Z,16.76
2018-05-02T09:45:06.506Z,16.90
2018-05-02T09:47:33.196Z,17.06
2018-05-02T09:49:59.850Z,17.16
2018-05-02T09:52:27.208Z,17.13
2018-05-02T09:54:54.668Z,17.10
2018-05-02T09:57:22.089Z,17.26
2018-05-02T09:59:48.765Z,17.26
2018-05-02T10:02:16.139Z,17.18
2018-05-02T10:04:42.876Z,17.17
2018-05-02T10:07:10.279Z,17.13
2018-05-02T10:09:37.008Z,17.17
2018-05-02T10:12:03.670Z,16.97
2018-05-02T10:14:30.279Z,17.00
2018-05-02T10:16:56.909Z,16.82
2018-05-02T10:19:24.626Z,16.79
2018-05-02T10:21:52.028Z,16.87
2018-05-02T10:24:19.090Z,17.07
2018-05-02T10:26:45.902Z,17.34
2018-05-02T10:29:12.596Z,17.44
2018-05-02T10:31:39.237Z,17.52
2018-05-02T10:34:06.012Z,17.48
2018-05-02T10:36:34.219Z,17.27
2018-05-02T10:39:00.884Z,17.21
2018-05-02T10:41:27.501Z,17.19
2018-05-02T10:43:54.179Z,17.20
2018-05-02T10:46:20.852Z,17.21
2018-05-02T10:48:48.244Z,17.08
2018-05-02T10:51:14.872Z,17.12
2018-05-02T10:53:42.740Z,17.14
2018-05-02T10:56:09.489Z,17.26
2018-05-02T10:58:36.756Z,17.33
2018-05-02T11:01:03.567Z,17.24
2018-05-02T11:03:30.979Z,17.17
2018-05-02T11:05:57.652Z,17.01
2018-05-02T11:08:26.434Z,17.13
2018-05-02T11:10:53.824Z,17.36
2018-05-02T11:13:20.512Z,17.54
2018-05-02T11:15:47.323Z,17.62
2018-05-02T11:18:15.369Z,17.68
2018-05-02T11:20:42.257Z,17.67
2018-05-02T11:23:09.721Z,17.53
2018-05-02T11:25:36.793Z,17.62
2018-05-02T11:28:03.510Z,17.68
2018-05-02T11:30:30.216Z,17.70
2018-05-02T11:32:57.651Z,17.80
2018-05-02T11:35:24.381Z,17.79
2018-05-02T11:37:51.945Z,17.85
2018-05-02T11:40:19.428Z,17.86
2018-05-02T11:42:46.133Z,17.72
2018-05-02T11:45:13.629Z,17.81
2018-05-02T11:47:41.113Z,18.01
2018-05-02T11:50:07.794Z,18.18
2018-05-02T11:52:36.861Z,18.34
2018-05-02T11:55:03.516Z,18.43
2018-05-02T11:57:30.121Z,18.46
2018-05-02T11:59:57.031Z,18.55
2018-05-02T12:02:24.448Z,18.79
2018-05-02T12:04:51.335Z,18.73
2018-05-02T12:07:18.303Z,18.74
2018-05-02T12:09:45.033Z,18.67
2018-05-02T12:12:13.336Z,18.39
2018-05-02T12:14:39.997Z,18.61
2018-05-02T12:17:06.677Z,18.72
2018-05-02T12:19:34.124Z,18.86
2018-05-02T12:22:00.985Z,19.03
2018-05-02T12:24:27.544Z,18.95
2018-05-02T12:26:55.518Z,18.86
2018-05-02T12:29:22.220Z,18.94
2018-05-02T12:31:49.616Z,19.02
2018-05-02T12:34:16.450Z,19.04
2018-05-02T12:36:43.170Z,19.07
2018-05-02T12:39:09.993Z,19.18
2018-05-02T12:41:36.661Z,19.29
2018-05-02T12:44:04.024Z,19.15
2018-05-02T12:46:31.003Z,19.31
2018-05-02T12:48:57.771Z,19.33
2018-05-02T12:51:24.747Z,19.46
2018-05-02T12:53:53.135Z,19.60
2018-05-02T12:56:20.727Z,19.64
2018-05-02T12:58:48.895Z,19.71
2018-05-02T13:01:16.478Z,19.66
2018-05-02T13:03:44.320Z,19.78
2018-05-02T13:06:11.730Z,19.94
2018-05-02T13:08:38.497Z,20.11
2018-05-02T13:11:05.316Z,20.39
2018-05-02T13:13:32.334Z,20.53
2018-05-02T13:15:59.830Z,20.82
2018-05-02T13:18:26.595Z,20.88
2018-05-02T13:20:53.325Z,21.08
2018-05-02T13:23:20.426Z,21.26
2018-05-02T13:25:47.511Z,21.27
2018-05-02T13:28:14.952Z,21.33
2018-05-02T13:30:43.556Z,21.19
2018-05-02T13:33:10.454Z,21.21
2018-05-02T13:35:38.598Z,21.17
2018-05-02T13:38:05.479Z,21.05
2018-05-02T13:40:32.449Z,21.09
2018-05-02T13:42:59.160Z,21.18
2018-05-02T13:45:25.920Z,21.32
2018-05-02T13:47:52.597Z,21.66
2018-05-02T13:50:20.131Z,21.88
2018-05-02T13:52:47.219Z,22.10
2018-05-02T13:55:14.672Z,22.55
2018-05-02T13:57:42.242Z,22.76
2018-05-02T14:00:09.314Z,22.59
2018-05-02T14:02:36.981Z,22.42
2018-05-02T14:05:03.952Z,22.52
2018-05-02T14:07:31.002Z,22.99
2018-05-02T14:09:57.792Z,23.12
2018-05-02T14:12:25.384Z,23.21
2018-05-02T14:14:52.326Z,22.90
2018-05-02T14:17:19.125Z,22.78
2018-05-02T14:19:46.581Z,22.59
2018-05-02T14:22:14.023Z,22.88
2018-05-02T14:24:41.803Z,23.16
2018-05-02T14:27:09.356Z,23.39
2018-05-02T14:29:36.468Z,23.29
2018-05-02T14:32:03.337Z,23.67
2018-05-02T14:34:30.114Z,23.64
2018-05-02T14:36:57.027Z,23.80
2018-05-02T14:39:24.617Z,24.01
2018-05-02T14:41:52.100Z,24.76
2018-05-02T14:44:19.071Z,25.54
2018-05-02T14:46:46.585Z,25.62
2018-05-02T14:49:13.321Z,24.83
2018-05-02T14:51:40.768Z,24.65
2018-05-02T14:54:07.449Z,24.17
2018-05-02T14:56:34.114Z,23.93
2018-05-02T14:59:01.009Z,23.52
2018-05-02T15:01:28.513Z,24.14
2018-05-02T15:03:55.900Z,24.99
2018-05-02T15:06:22.605Z,25.74
2018-05-02T15:08:50.707Z,25.95
2018-05-02T15:11:17.446Z,25.31
2018-05-02T15:13:44.193Z,24.83
2018-05-02T15:16:11.624Z,23.87
2018-05-02T15:18:38.534Z,22.91
2018-05-02T15:21:05.225Z,22.18
2018-05-02T15:23:33.332Z,21.65
2018-05-02T15:26:00.700Z,21.36
2018-05-02T15:28:27.401Z,21.14
2018-05-02T15:30:54.324Z,21.04
2018-05-02T15:33:20.968Z,20.80
2018-05-02T15:35:48.501Z,20.61
2018-05-02T15:38:15.174Z,20.49
2018-05-02T15:40:42.080Z,20.35
2018-05-02T15:43:09.187Z,20.26
2018-05-02T15:45:35.857Z,20.22
2018-05-02T15:48:02.817Z,20.26
2018-05-02T15:50:29.980Z,20.27
2018-05-02T15:52:56.668Z,20.28
2018-05-02T15:55:24.111Z,20.14
2018-05-02T15:57:50.765Z,19.98
2018-05-02T16:00:18.223Z,19.94
2018-05-02T16:02:47.647Z,19.88
2018-05-02T16:05:14.270Z,19.92
2018-05-02T16:07:41.649Z,19.87
2018-05-02T16:10:10.341Z,19.84
2018-05-02T16:12:37.102Z,19.78
2018-05-02T16:15:04.731Z,19.79
2018-05-02T16:17:32.056Z,19.87
2018-05-02T16:19:58.753Z,19.92
2018-05-02T16:22:26.289Z,19.88
2018-05-02T16:24:52.951Z,19.93
2018-05-02T16:27:19.726Z,19.81
2018-05-02T16:29:46.880Z,19.81
2018-05-02T16:32:13.570Z,19.88
2018-05-02T16:34:40.273Z,20.00
2018-05-02T16:37:09.256Z,20.01
2018-05-02T16:39:35.905Z,20.01
2018-05-02T16:42:03.293Z,19.93
2018-05-02T16:44:29.957Z,19.86
2018-05-02T16:46:56.631Z,19.79
2018-05-02T16:49:23.349Z,19.76
2018-05-02T16:51:50.116Z,19.82
2018-05-02T16:54:17.696Z,19.87
2018-05-02T16:56:45.168Z,19.72
2018-05-02T16:59:11.859Z,19.63
2018-05-02T17:01:38.518Z,19.64
2018-05-02T17:04:06.547Z,19.61
2018-05-02T17:06:33.205Z,19.55
2018-05-02T17:09:00.055Z,19.63
2018-05-02T17:11:27.269Z,19.60
2018-05-02T17:13:54.016Z,19.49
2018-05-02T17:16:20.829Z,19.47
2018-05-02T17:18:49.118Z,19.51
2018-05-02T17:21:15.760Z,19.50
2018-05-02T17:23:42.562Z,19.55
2018-05-02T17:26:10.001Z,19.51
2018-05-02T17:28:36.722Z,19.53
2018-05-02T17:31:03.597Z,19.57
2018-05-02T17:33:30.385Z,19.68
2018-05-02T17:35:57.300Z,19.64
2018-05-02T17:38:24.824Z,19.59
2018-05-02T17:40:51.511Z,19.51
2018-05-02T17:43:18.433Z,19.39
2018-05-02T17:45:45.922Z,19.33
2018-05-02T17:48:12.657Z,19.23
2018-05-02T17:50:39.364Z,19.17
2018-05-02T17:53:07.067Z,19.17
2018-05-02T17:55:33.931Z,19.07
2018-05-02T17:58:00.556Z,19.05
2018-05-02T18:00:28.023Z,19.05
2018-05-02T18:02:54.766Z,18.95
2018-05-02T18:05:21.485Z,18.88
2018-05-02T18:07:48.195Z,18.84
2018-05-02T18:10:15.610Z,18.75
2018-05-02T18:12:42.409Z,18.77
2018-05-02T18:15:10.204Z,18.70
2018-05-02T18:17:36.974Z,18.65
2018-05-02T18:20:04.465Z,18.67
2018-05-02T18:22:31.956Z,18.53
2018-05-02T18:24:59.042Z,18.50
2018-05-02T18:27:25.727Z,18.39
2018-05-02T18:29:52.478Z,18.34
2018-05-02T18:32:19.229Z,18.28
2018-05-02T18:34:45.958Z,18.14
2018-05-02T18:37:12.875Z,18.09
2018-05-02T18:39:41.254Z,17.96
2018-05-02T18:42:08.692Z,17.84
2018-05-02T18:44:35.389Z,17.76
2018-05-02T18:47:02.066Z,17.68
2018-05-02T18:49:28.778Z,17.61
2018-05-02T18:51:55.440Z,17.57
2018-05-02T18:54:22.120Z,17.54
2018-05-02T18:56:48.850Z,17.55
2018-05-02T18:59:17.053Z,17.50
2018-05-02T19:01:43.756Z,17.44
2018-05-02T19:04:10.498Z,17.48
2018-05-02T19:06:37.910Z,17.40
2018-05-02T19:09:04.655Z,17.38
2018-05-02T19:11:31.390Z,17.31
2018-05-02T19:14:01.101Z,17.25
2018-05-02T19:16:27.754Z,17.19
2018-05-02T19:19:00.604Z,17.23
2018-05-02T19:21:27.282Z,17.17
2018-05-02T19:23:54.044Z,17.13
2018-05-02T19:26:27.541Z,17.12
2018-05-02T19:28:54.205Z,17.12
2018-05-02T19:31:26.936Z,17.10
2018-05-02T19:33:54.562Z,17.05
2018-05-02T19:36:21.209Z,17.01
2018-05-02T19:38:47.917Z,16.93
2018-05-02T19:41:21.411Z,16.92
2018-05-02T19:43:54.940Z,16.92
2018-05-02T19:46:21.653Z,16.84
2018-05-02T19:48:49.090Z,16.80
2018-05-02T19:51:21.997Z,16.75
2018-05-02T19:53:49.339Z,16.72
2018-05-02T19:56:16.001Z,16.75
2018-05-02T19:58:42.902Z,16.84
2018-05-02T20:01:15.703Z,16.78
2018-05-02T20:03:42.426Z,16.71
2018-05-02T20:06:09.056Z,16.63
2018-05-02T20:08:41.788Z,16.54
2018-05-02T20:11:15.312Z,16.51
2018-05-02T20:13:48.770Z,16.48
2018-05-02T20:16:15.476Z,16.39
2018-05-02T20:18:42.178Z,16.30
2018-05-02T20:21:09.606Z,16.26
2018-05-02T20:23:36.347Z,16.28
2018-05-02T20:26:03.016Z,16.17
2018-05-02T20:28:30.375Z,16.16
2018-05-02T20:30:57.945Z,16.13
2018-05-02T20:33:25.307Z,16.07
2018-05-02T20:35:52.005Z,16.08
2018-05-02T20:38:18.743Z,16.03
2018-05-02T20:40:45.437Z,16.01
2018-05-02T20:43:12.149Z,15.96
2018-05-02T20:45:39.535Z,15.98
2018-05-02T20:48:06.193Z,15.96
2018-05-02T20:50:32.845Z,15.94
2018-05-02T20:52:59.547Z,15.92
2018-05-02T20:55:26.213Z,15.86
2018-05-02T20:57:53.044Z,15.78
2018-05-02T21:00:19.776Z,15.70
2018-05-02T21:02:46.691Z,15.63
2018-05-02T21:05:14.238Z,15.61
2018-05-02T21:07:41.610Z,15.53
2018-05-02T21:10:08.289Z,15.48
2018-05-02T21:12:35.082Z,15.43
2018-05-02T21:15:01.712Z,15.36
2018-05-02T21:17:28.345Z,15.34
2018-05-02T21:19:55.001Z,15.27
2018-05-02T21:22:22.408Z,15.24
2018-05-02T21:24:49.061Z,15.24
2018-05-02T21:27:15.829Z,15.29
2018-05-02T21:29:42.472Z,15.27
2018-05-02T21:32:09.896Z,15.28
2018-05-02T21:34:36.548Z,15.32
2018-05-02T21:37:03.240Z,15.35
2018-05-02T21:39:29.869Z,15.33
2018-05-02T21:41:56.655Z,15.41
2018-05-02T21:44:23.292Z,15.38
2018-05-02T21:46:49.952Z,15.41
2018-05-02T21:49:16.671Z,15.49
2018-05-02T21:51:43.324Z,15.56
2018-05-02T21:54:10.085Z,15.63
2018-05-02T21:56:36.682Z,15.66
2018-05-02T21:59:03.382Z,15.72
2018-05-02T22:01:30.054Z,15.79
2018-05-02T22:03:56.732Z,15.77
2018-05-02T22:06:24.280Z,15.76
2018-05-02T22:08:50.914Z,15.78
2018-05-02T22:11:17.680Z,15.82
2018-05-02T22:13:45.073Z,15.84
2018-05-02T22:16:11.747Z,15.84
2018-05-02T22:18:38.384Z,15.85
2018-05-02T22:21:05.114Z,15.82
2018-05-02T22:23:31.753Z,15.84
2018-05-02T22:25:58.388Z,15.83
2018-05-02T22:28:25.050Z,15.85
2018-05-02T22:30:52.534Z,15.91
2018-05-02T22:33:19.943Z,15.90
2018-05-02T22:35:46.626Z,15.88
2018-05-02T22:38:14.025Z,15.86
2018-05-02T22:40:40.719Z,15.80
2018-05-02T22:43:08.120Z,15.79
2018-05-02T22:45:34.762Z,15.75
2018-05-02T22:48:01.403Z,15.79
2018-05-02T22:50:28.069Z,15.78
2018-05-02T22:52:54.729Z,15.82
2018-05-02T22:55:22.146Z,15.74
2018-05-02T22:57:49.555Z,15.86
2018-05-02T23:00:16.234Z,15.83
2018-05-02T23:02:43.118Z,15.91
2018-05-02T23:05:11.243Z,15.83
2018-05-02T23:07:37.893Z,15.77
2018-05-02T23:10:04.528Z,15.78
2018-05-02T23:12:31.201Z,15.79
2018-05-02T23:14:58.575Z,15.80
2018-05-02T23:17:25.921Z,15.79
2018-05-02T23:19:53.329Z,15.76
2018-05-02T23:22:20.064Z,15.78
2018-05-02T23:24:46.689Z,15.69
2018-05-02T23:27:13.319Z,15.70
2018-05-02T23:29:40.029Z,15.69
2018-05-02T23:32:07.509Z,15.72
2018-05-02T23:34:34.132Z,15.77
2018-05-02T23:37:01.502Z,15.81
2018-05-02T23:39:28.141Z,15.72
2018-05-02T23:41:54.982Z,15.67
2018-05-02T23:44:21.629Z,15.73
2018-05-02T23:46:48.328Z,15.73
2018-05-02T23:49:14.948Z,15.61
2018-05-02T23:51:41.812Z,15.57
2018-05-02T23:54:08.417Z,15.42
2018-05-02T23:56:35.090Z,15.45
2018-05-02T23:59:02.632Z,15.33
